METAR Data
IDs: Format: Raw Decoded Include TAF

Data at: 1753 UTC 16 Oct 2021

EBOS 161720Z 16003KT CAVOK 11/07 Q1021 NOSIG